Terminal Aerodrome Forecast
Issued by NWS

Home | Current Version | Previous Version | Text Only | Print | Product List | Glossary On
Versions: 1 2 3 4 5 6 7 8 9 10 11 12 13 14 15 16 17 18 19 20 21 22 23 24 25 26 27 28 29 30
000
FTUS44 KEWX 271729
TAFSSF
TAF
KSSF 271729Z 2718/2818 18009KT P6SM VCTS BKN040CB
     FM272300 13010KT P6SM SCT050 BKN150
     FM280700 12003KT P6SM BKN012
     FM281700 17008KT P6SM BKN040=

USA.gov is the U.S. government's official web portal to all federal, state and local government web resources and services.